createdAt,value
2019-02-25T00:00:20.246Z,0.00
2019-02-25T00:01:20.200Z,0.00
2019-02-25T00:02:20.157Z,0.00
2019-02-25T00:03:20.129Z,0.00
2019-02-25T00:04:20.070Z,0.00
2019-02-25T00:05:20.026Z,0.00
2019-02-25T00:06:19.982Z,0.00
2019-02-25T00:07:19.939Z,0.00
2019-02-25T00:08:19.889Z,0.00
2019-02-25T00:09:19.863Z,0.00
2019-02-25T00:10:19.799Z,0.00
2019-02-25T00:11:19.762Z,0.00
2019-02-25T00:12:19.700Z,0.00
2019-02-25T00:13:19.668Z,0.00
2019-02-25T00:14:19.624Z,0.00
2019-02-25T00:15:19.601Z,0.00
2019-02-25T00:16:19.551Z,0.00
2019-02-25T00:17:19.514Z,0.00
2019-02-25T00:18:19.470Z,0.00
2019-02-25T00:19:19.405Z,0.00
2019-02-25T00:20:19.350Z,0.00
2019-02-25T00:21:19.338Z,0.00
2019-02-25T00:22:19.284Z,0.00
2019-02-25T00:23:19.230Z,0.00
2019-02-25T00:24:19.204Z,0.00
2019-02-25T00:25:19.142Z,0.00
2019-02-25T00:26:19.120Z,0.00
2019-02-25T00:27:19.074Z,0.00
2019-02-25T00:28:19.010Z,0.00
2019-02-25T00:29:18.967Z,0.00
2019-02-25T00:30:18.922Z,0.00
2019-02-25T00:31:18.887Z,0.00
2019-02-25T00:32:18.843Z,0.00
2019-02-25T00:33:18.779Z,0.00
2019-02-25T00:34:18.734Z,0.00
2019-02-25T00:35:18.723Z,0.00
2019-02-25T00:36:18.667Z,0.00
2019-02-25T00:37:18.635Z,0.00
2019-02-25T00:38:18.583Z,0.00
2019-02-25T00:39:18.546Z,0.00
2019-02-25T00:40:18.502Z,0.00
2019-02-25T00:41:18.438Z,0.00
2019-02-25T00:42:18.406Z,0.00
2019-02-25T00:43:18.350Z,0.00
2019-02-25T00:44:18.326Z,0.00
2019-02-25T00:45:18.278Z,0.00
2019-02-25T00:46:18.239Z,0.00
2019-02-25T00:47:18.198Z,0.00
2019-02-25T00:48:18.129Z,0.00
2019-02-25T00:49:18.094Z,0.00
2019-02-25T00:50:18.050Z,0.00
2019-02-25T00:51:17.989Z,0.00
2019-02-25T00:52:17.973Z,0.00
2019-02-25T00:53:17.896Z,0.00
2019-02-25T00:54:17.884Z,0.00
2019-02-25T00:55:17.828Z,0.00
2019-02-25T00:56:17.763Z,0.00
2019-02-25T00:57:17.743Z,0.00
2019-02-25T00:58:17.707Z,0.00
2019-02-25T00:59:17.630Z,0.00
2019-02-25T01:00:17.586Z,0.00
2019-02-25T01:01:17.573Z,0.00
2019-02-25T01:02:17.520Z,0.00
2019-02-25T01:03:17.465Z,0.00
2019-02-25T01:04:17.424Z,0.00
2019-02-25T01:05:17.396Z,0.00
2019-02-25T01:06:17.331Z,0.00
2019-02-25T01:07:17.288Z,0.00
2019-02-25T01:08:17.243Z,0.00
2019-02-25T01:09:17.207Z,0.00
2019-02-25T01:10:17.154Z,0.00
2019-02-25T01:11:17.109Z,0.00
2019-02-25T01:12:17.074Z,0.00
2019-02-25T01:13:17.009Z,0.00
2019-02-25T01:14:16.969Z,0.00
2019-02-25T01:15:16.951Z,0.00
2019-02-25T01:16:16.888Z,0.00
2019-02-25T01:17:16.843Z,0.00
2019-02-25T01:18:16.799Z,0.00
2019-02-25T01:19:16.754Z,0.00
2019-02-25T01:20:16.730Z,0.00
2019-02-25T01:21:16.665Z,0.00
2019-02-25T01:22:16.630Z,0.00
2019-02-25T01:23:16.576Z,0.00
2019-02-25T01:24:16.553Z,0.00
2019-02-25T01:25:16.476Z,0.00
2019-02-25T01:26:16.431Z,0.00
2019-02-25T01:27:16.398Z,0.00
2019-02-25T01:28:16.365Z,0.00
2019-02-25T01:29:16.298Z,0.00
2019-02-25T01:30:16.285Z,0.00
2019-02-25T01:31:16.241Z,0.00
2019-02-25T01:32:16.164Z,0.00
2019-02-25T01:33:16.121Z,0.00
2019-02-25T01:34:16.108Z,0.00
2019-02-25T01:35:16.042Z,0.00
2019-02-25T01:36:16.007Z,0.00
2019-02-25T01:37:15.962Z,0.00
2019-02-25T01:38:15.918Z,0.00
2019-02-25T01:39:15.864Z,0.00
2019-02-25T01:40:15.808Z,0.00
2019-02-25T01:41:15.796Z,0.00
2019-02-25T01:42:15.740Z,0.00
2019-02-25T01:43:15.707Z,0.00
2019-02-25T01:44:15.662Z,0.00
2019-02-25T01:45:15.597Z,0.00
2019-02-25T01:46:15.561Z,0.00
2019-02-25T01:47:15.509Z,0.00
2019-02-25T01:48:15.472Z,0.00
2019-02-25T01:49:15.407Z,0.00
2019-02-25T01:50:15.394Z,0.00
2019-02-25T01:51:15.331Z,0.00
2019-02-25T01:52:15.273Z,0.00
2019-02-25T01:53:15.261Z,0.00
2019-02-25T01:54:15.205Z,0.00
2019-02-25T01:55:15.171Z,0.00
2019-02-25T01:56:15.127Z,0.00
2019-02-25T01:57:15.071Z,0.00
2019-02-25T01:58:15.038Z,0.00
2019-02-25T01:59:14.993Z,0.00
2019-02-25T02:00:14.954Z,0.00
2019-02-25T02:01:14.883Z,0.00
2019-02-25T02:02:14.828Z,0.00
2019-02-25T02:03:14.814Z,0.00
2019-02-25T02:04:14.751Z,0.00
2019-02-25T02:05:14.699Z,0.00
2019-02-25T02:06:14.650Z,0.00
2019-02-25T02:07:14.604Z,0.00
2019-02-25T02:08:14.571Z,0.00
2019-02-25T02:09:14.536Z,0.00
2019-02-25T02:10:14.504Z,0.00
2019-02-25T02:11:14.459Z,0.00
2019-02-25T02:12:14.382Z,0.00
2019-02-25T02:13:14.633Z,0.00
2019-02-25T02:14:14.313Z,0.00
2019-02-25T02:15:14.253Z,0.00
2019-02-25T02:16:14.236Z,0.00
2019-02-25T02:17:14.171Z,0.00
2019-02-25T02:18:14.126Z,0.00
2019-02-25T02:19:14.102Z,0.00
2019-02-25T02:20:14.059Z,0.00
2019-02-25T02:21:14.013Z,0.00
2019-02-25T02:22:13.954Z,0.00
2019-02-25T02:23:13.892Z,0.00
2019-02-25T02:24:13.847Z,0.00
2019-02-25T02:25:13.815Z,0.00
2019-02-25T02:26:13.779Z,0.00
2019-02-25T02:27:13.726Z,0.00
2019-02-25T02:28:13.702Z,0.00
2019-02-25T02:29:13.636Z,0.00
2019-02-25T02:30:13.595Z,0.00
2019-02-25T02:31:13.557Z,0.00
2019-02-25T02:32:13.491Z,0.00
2019-02-25T02:33:13.468Z,0.00
2019-02-25T02:34:13.434Z,0.00
2019-02-25T02:35:13.372Z,0.00
2019-02-25T02:36:13.346Z,0.00
2019-02-25T02:37:13.269Z,0.00
2019-02-25T02:38:13.276Z,0.00
2019-02-25T02:39:13.179Z,0.00
2019-02-25T02:40:13.140Z,0.00
2019-02-25T02:41:13.090Z,0.00
2019-02-25T02:42:13.059Z,0.00
2019-02-25T02:43:13.002Z,0.00
2019-02-25T02:44:12.980Z,0.00
2019-02-25T02:45:12.912Z,0.00
2019-02-25T02:46:12.869Z,0.00
2019-02-25T02:47:12.843Z,0.00
2019-02-25T02:48:12.811Z,0.00
2019-02-25T02:49:12.766Z,0.00
2019-02-25T02:50:12.703Z,0.00
2019-02-25T02:51:12.672Z,0.00
2019-02-25T02:52:12.640Z,0.00
2019-02-25T02:53:12.657Z,0.00
2019-02-25T02:54:12.523Z,0.00
2019-02-25T02:55:12.479Z,0.00
2019-02-25T02:56:12.444Z,0.00
2019-02-25T02:57:12.399Z,0.00
2019-02-25T02:58:12.334Z,0.00
2019-02-25T02:59:12.301Z,0.00
2019-02-25T03:00:12.278Z,0.00
2019-02-25T03:01:12.233Z,0.00
2019-02-25T03:02:12.167Z,0.00
2019-02-25T03:03:12.133Z,0.00
2019-02-25T03:04:12.067Z,0.00
2019-02-25T03:05:12.054Z,0.00
2019-02-25T03:06:11.999Z,0.00
2019-02-25T03:07:11.966Z,0.00
2019-02-25T03:08:11.911Z,0.00
2019-02-25T03:09:11.877Z,0.00
2019-02-25T03:10:11.833Z,0.00
2019-02-25T03:11:11.768Z,0.00
2019-02-25T03:12:11.712Z,0.00
2019-02-25T03:13:11.679Z,0.00
2019-02-25T03:14:11.623Z,0.00
2019-02-25T03:15:11.611Z,0.00
2019-02-25T03:16:11.570Z,0.00
2019-02-25T03:17:11.491Z,0.00
2019-02-25T03:18:11.473Z,0.00
2019-02-25T03:19:11.432Z,0.00
2019-02-25T03:20:11.374Z,0.00
2019-02-25T03:21:11.333Z,0.00
2019-02-25T03:22:11.280Z,0.00
2019-02-25T03:23:11.244Z,0.00
2019-02-25T03:24:11.199Z,0.00
2019-02-25T03:25:11.146Z,0.00
2019-02-25T03:26:11.122Z,0.00
2019-02-25T03:27:11.045Z,0.00
2019-02-25T03:28:11.021Z,0.00
2019-02-25T03:29:10.968Z,0.00
2019-02-25T03:30:10.929Z,0.00
2019-02-25T03:31:10.901Z,0.00
2019-02-25T03:32:10.850Z,0.00
2019-02-25T03:33:10.781Z,0.00
2019-02-25T03:34:10.735Z,0.00
2019-02-25T03:35:10.722Z,0.00
2019-02-25T03:36:10.659Z,0.00
2019-02-25T03:37:10.621Z,0.00
2019-02-25T03:38:10.589Z,0.00
2019-02-25T03:39:10.525Z,0.00
2019-02-25T03:40:10.487Z,0.00
2019-02-25T03:41:10.425Z,0.00
2019-02-25T03:42:10.409Z,0.00
2019-02-25T03:43:10.368Z,0.00
2019-02-25T03:44:10.308Z,0.00
2019-02-25T03:45:10.275Z,0.00
2019-02-25T03:46:10.219Z,0.00
2019-02-25T03:47:10.194Z,0.00
2019-02-25T03:48:10.144Z,0.00
2019-02-25T03:49:10.098Z,0.00
2019-02-25T03:50:10.042Z,0.00
2019-02-25T03:51:09.996Z,0.00
2019-02-25T03:52:09.932Z,0.00
2019-02-25T03:53:09.906Z,0.00
2019-02-25T03:54:09.853Z,0.00
2019-02-25T03:55:14.078Z,0.00
2019-02-25T03:56:09.763Z,0.00
2019-02-25T03:57:09.708Z,0.00
2019-02-25T03:58:09.673Z,0.00
2019-02-25T03:59:09.638Z,0.00
2019-02-25T04:00:09.593Z,0.00
2019-02-25T04:01:09.548Z,0.00
2019-02-25T04:02:09.494Z,0.00
2019-02-25T04:03:09.473Z,0.00
2019-02-25T04:04:09.405Z,0.00
2019-02-25T04:05:09.360Z,0.00
2019-02-25T04:06:09.305Z,0.00
2019-02-25T04:07:09.291Z,0.00
2019-02-25T04:08:09.241Z,0.00
2019-02-25T04:09:09.181Z,0.00
2019-02-25T04:10:09.158Z,0.00
2019-02-25T04:11:09.093Z,0.00
2019-02-25T04:12:09.050Z,0.00
2019-02-25T04:13:08.992Z,0.00
2019-02-25T04:14:08.962Z,0.00
2019-02-25T04:15:08.928Z,0.00
2019-02-25T04:16:08.878Z,0.00
2019-02-25T04:17:08.847Z,0.00
2019-02-25T04:18:08.825Z,0.00
2019-02-25T04:19:08.757Z,0.00
2019-02-25T04:20:08.693Z,0.00
2019-02-25T04:21:08.655Z,0.00
2019-02-25T04:22:08.616Z,0.00
2019-02-25T04:23:08.545Z,0.00
2019-02-25T04:24:08.524Z,0.00
2019-02-25T04:25:08.471Z,0.00
2019-02-25T04:26:08.431Z,0.00
2019-02-25T04:27:08.366Z,0.00
2019-02-25T04:28:08.321Z,0.00
2019-02-25T04:29:08.297Z,0.00
2019-02-25T04:30:08.244Z,0.00
2019-02-25T04:31:08.221Z,0.00
2019-02-25T04:32:08.175Z,0.00
2019-02-25T04:33:08.098Z,0.00
2019-02-25T04:34:08.067Z,0.00
2019-02-25T04:35:08.030Z,0.00
2019-02-25T04:36:07.997Z,0.00
2019-02-25T04:37:07.953Z,0.00
2019-02-25T04:38:07.908Z,0.00
2019-02-25T04:39:07.844Z,0.00
2019-02-25T04:40:07.822Z,0.00
2019-02-25T04:41:07.773Z,0.00
2019-02-25T04:42:07.701Z,0.00
2019-02-25T04:43:07.684Z,0.00
2019-02-25T04:44:07.618Z,0.00
2019-02-25T04:45:07.595Z,0.00
2019-02-25T04:46:07.550Z,0.00
2019-02-25T04:47:07.473Z,0.00
2019-02-25T04:48:07.453Z,0.00
2019-02-25T04:49:07.407Z,0.00
2019-02-25T04:50:07.360Z,0.00
2019-02-25T04:51:07.316Z,0.00
2019-02-25T04:52:07.283Z,0.00
2019-02-25T04:53:07.217Z,0.00
2019-02-25T04:54:07.184Z,0.00
2019-02-25T04:55:07.150Z,0.00
2019-02-25T04:56:07.083Z,0.00
2019-02-25T04:57:07.048Z,0.00
2019-02-25T04:58:07.014Z,0.00
2019-02-25T04:59:06.961Z,0.00
2019-02-25T05:00:06.925Z,0.00
2019-02-25T05:01:06.849Z,0.00
2019-02-25T05:02:06.837Z,0.00
2019-02-25T05:03:06.771Z,0.00
2019-02-25T05:04:06.715Z,0.00
2019-02-25T05:05:06.703Z,0.00
2019-02-25T05:06:06.627Z,0.00
2019-02-25T05:07:06.583Z,0.00
2019-02-25T05:08:06.548Z,0.00
2019-02-25T05:09:06.524Z,0.00
2019-02-25T05:10:06.450Z,0.00
2019-02-25T05:11:06.423Z,0.00
2019-02-25T05:12:06.362Z,0.00
2019-02-25T05:13:06.329Z,0.00
2019-02-25T05:14:06.269Z,0.00
2019-02-25T05:15:06.236Z,0.00
2019-02-25T05:16:06.201Z,0.00
2019-02-25T05:17:06.156Z,0.00
2019-02-25T05:18:06.123Z,0.00
2019-02-25T05:19:06.078Z,0.00
2019-02-25T05:20:06.002Z,0.00
2019-02-25T05:21:05.958Z,0.00
2019-02-25T05:22:05.954Z,0.00
2019-02-25T05:23:05.868Z,0.00
2019-02-25T05:24:05.857Z,0.00
2019-02-25T05:25:05.788Z,0.00
2019-02-25T05:26:05.748Z,0.00
2019-02-25T05:27:05.693Z,0.00
2019-02-25T05:28:05.647Z,0.00
2019-02-25T05:29:05.633Z,0.00
2019-02-25T05:30:05.560Z,0.00
2019-02-25T05:31:05.534Z,0.00
2019-02-25T05:32:05.499Z,0.00
2019-02-25T05:33:05.475Z,0.00
2019-02-25T05:34:05.378Z,0.00
2019-02-25T05:35:05.355Z,0.00
2019-02-25T05:36:05.311Z,0.00
2019-02-25T05:37:05.265Z,0.00
2019-02-25T05:38:05.234Z,0.00
2019-02-25T05:39:05.165Z,0.00
2019-02-25T05:40:05.110Z,0.00
2019-02-25T05:41:05.099Z,0.00
2019-02-25T05:42:05.052Z,0.00
2019-02-25T05:43:05.014Z,0.00
2019-02-25T05:44:04.951Z,0.00
2019-02-25T05:45:04.908Z,0.00
2019-02-25T05:46:04.863Z,0.00
2019-02-25T05:47:04.834Z,0.00
2019-02-25T05:48:04.767Z,0.00
2019-02-25T05:49:04.719Z,0.00
2019-02-25T05:50:04.694Z,0.00
2019-02-25T05:51:04.627Z,0.00
2019-02-25T05:52:04.585Z,0.00
2019-02-25T05:53:04.540Z,0.00
2019-02-25T05:54:04.498Z,0.00
2019-02-25T05:55:04.470Z,0.00
2019-02-25T05:56:04.406Z,0.00
2019-02-25T05:57:04.381Z,0.00
2019-02-25T05:58:04.308Z,0.00
2019-02-25T05:59:04.282Z,0.00
2019-02-25T06:00:04.225Z,0.00
2019-02-25T06:01:04.201Z,0.00
2019-02-25T06:02:05.522Z,0.00
2019-02-25T06:03:04.087Z,0.00
2019-02-25T06:04:04.067Z,0.00
2019-02-25T06:05:04.002Z,0.00
2019-02-25T06:06:03.966Z,0.00
2019-02-25T06:07:03.901Z,0.00
2019-02-25T06:08:03.861Z,0.00
2019-02-25T06:09:03.831Z,0.00
2019-02-25T06:10:03.806Z,0.00
2019-02-25T06:11:03.721Z,0.00
2019-02-25T06:12:03.677Z,0.00
2019-02-25T06:13:03.654Z,0.00
2019-02-25T06:14:03.588Z,0.00
2019-02-25T06:15:03.575Z,0.00
2019-02-25T06:16:03.518Z,0.00
2019-02-25T06:17:03.486Z,0.00
2019-02-25T06:18:03.441Z,0.00
2019-02-25T06:19:03.380Z,0.00
2019-02-25T06:20:03.319Z,0.00
2019-02-25T06:21:03.274Z,0.00
2019-02-25T06:22:03.242Z,0.00
2019-02-25T06:23:03.225Z,0.00
2019-02-25T06:24:03.151Z,0.00
2019-02-25T06:25:03.115Z,0.00
2019-02-25T06:26:03.084Z,0.00
2019-02-25T06:27:03.006Z,0.00
2019-02-25T06:28:02.981Z,0.00
2019-02-25T06:29:02.919Z,0.00
2019-02-25T06:30:02.883Z,0.00
2019-02-25T06:31:02.839Z,0.00
2019-02-25T06:32:02.781Z,0.00
2019-02-25T06:33:02.737Z,0.00
2019-02-25T06:34:02.705Z,0.00
2019-02-25T06:35:02.668Z,0.00
2019-02-25T06:36:02.623Z,0.00
2019-02-25T06:37:02.558Z,0.00
2019-02-25T06:38:02.527Z,0.00
2019-02-25T06:39:02.480Z,0.00
2019-02-25T06:40:02.424Z,0.00
2019-02-25T06:41:02.414Z,0.00
2019-02-25T06:42:02.366Z,0.00
2019-02-25T06:43:02.323Z,0.00
2019-02-25T06:44:02.276Z,0.00
2019-02-25T06:45:02.212Z,0.00
2019-02-25T06:46:02.167Z,0.00
2019-02-25T06:47:02.112Z,0.00
2019-02-25T06:48:02.077Z,0.00
2019-02-25T06:49:02.036Z,0.00
2019-02-25T06:50:02.010Z,0.00
2019-02-25T06:51:01.955Z,0.00
2019-02-25T06:52:01.907Z,0.00
2019-02-25T06:53:01.846Z,0.00
2019-02-25T06:54:01.799Z,0.00
2019-02-25T06:55:01.767Z,0.00
2019-02-25T06:56:01.787Z,0.00
2019-02-25T06:57:01.696Z,0.00
2019-02-25T06:58:01.618Z,0.00
2019-02-25T06:59:01.574Z,0.00
2019-02-25T07:00:01.531Z,0.00
2019-02-25T07:01:01.496Z,0.00
2019-02-25T07:02:01.472Z,0.00
2019-02-25T07:03:01.427Z,0.00
2019-02-25T07:04:01.382Z,0.00
2019-02-25T07:05:01.311Z,0.00
2019-02-25T07:06:01.282Z,0.00
2019-02-25T07:07:01.236Z,0.00
2019-02-25T07:08:01.171Z,0.00
2019-02-25T07:09:01.159Z,0.00
2019-02-25T07:10:01.114Z,0.00
2019-02-25T07:11:01.060Z,0.00
2019-02-25T07:12:01.017Z,0.00
2019-02-25T07:13:00.968Z,0.00
2019-02-25T07:14:00.934Z,0.00
2019-02-25T07:15:00.858Z,0.00
2019-02-25T07:16:00.825Z,0.00
2019-02-25T07:17:00.780Z,0.00
2019-02-25T07:18:00.735Z,0.00
2019-02-25T07:19:00.711Z,0.00
2019-02-25T07:20:00.655Z,0.00
2019-02-25T07:21:00.622Z,0.00
2019-02-25T07:22:00.558Z,0.00
2019-02-25T07:23:00.521Z,0.00
2019-02-25T07:24:00.488Z,0.00
2019-02-25T07:25:00.430Z,0.00
2019-02-25T07:26:00.387Z,0.00
2019-02-25T07:27:00.322Z,0.00
2019-02-25T07:28:00.288Z,0.00
2019-02-25T07:29:00.245Z,0.00
2019-02-25T07:30:00.228Z,0.00
2019-02-25T07:31:00.144Z,0.00
2019-02-25T07:32:00.130Z,0.00
2019-02-25T07:33:00.086Z,0.00
2019-02-25T07:34:00.023Z,0.00
2019-02-25T07:34:59.986Z,0.00
2019-02-25T07:35:59.940Z,0.00
2019-02-25T07:36:59.895Z,0.00
2019-02-25T07:37:59.833Z,0.00
2019-02-25T07:38:59.817Z,0.00
2019-02-25T07:39:59.761Z,0.00
2019-02-25T07:40:59.728Z,0.00
2019-02-25T07:41:59.674Z,0.00
2019-02-25T07:42:59.637Z,0.00
2019-02-25T07:43:59.582Z,0.00
2019-02-25T07:44:59.529Z,0.00
2019-02-25T07:45:59.472Z,0.00
2019-02-25T07:46:59.428Z,0.00
2019-02-25T07:47:59.395Z,0.00
2019-02-25T07:48:59.372Z,0.00
2019-02-25T07:49:59.314Z,0.00
2019-02-25T07:50:59.281Z,0.00
2019-02-25T07:51:59.236Z,0.00
2019-02-25T07:52:59.190Z,0.00
2019-02-25T07:53:59.135Z,0.00
2019-02-25T07:54:59.102Z,0.00
2019-02-25T07:56:02.300Z,0.00
2019-02-25T07:56:58.981Z,0.00
2019-02-25T07:57:58.947Z,0.00
2019-02-25T07:58:58.925Z,0.00
2019-02-25T07:59:58.880Z,0.00
2019-02-25T08:00:58.834Z,0.00
2019-02-25T08:01:58.790Z,0.00
2019-02-25T08:02:58.745Z,0.00
2019-02-25T08:03:58.667Z,0.00
2019-02-25T08:04:58.637Z,0.00
2019-02-25T08:05:58.590Z,0.00
2019-02-25T08:06:58.569Z,0.00
2019-02-25T08:07:58.488Z,0.00
2019-02-25T08:08:58.457Z,0.00
2019-02-25T08:09:58.401Z,0.00
2019-02-25T08:10:58.357Z,0.00
2019-02-25T08:11:58.332Z,0.00
2019-02-25T08:12:58.266Z,0.00
2019-02-25T08:13:58.220Z,0.00
2019-02-25T08:14:58.177Z,0.00
2019-02-25T08:15:58.142Z,0.00
2019-02-25T08:16:58.097Z,0.00
2019-02-25T08:17:58.058Z,0.00
2019-02-25T08:18:58.008Z,0.00
2019-02-25T08:19:57.984Z,0.00
2019-02-25T08:20:57.930Z,0.00
2019-02-25T08:21:57.898Z,0.00
2019-02-25T08:22:57.849Z,0.00
2019-02-25T08:23:57.784Z,0.00
2019-02-25T08:24:57.728Z,0.00
2019-02-25T08:25:57.715Z,0.00
2019-02-25T08:26:57.657Z,0.00
2019-02-25T08:27:57.594Z,0.00
2019-02-25T08:28:57.549Z,0.00
2019-02-25T08:29:57.505Z,0.00
2019-02-25T08:30:57.473Z,0.00
2019-02-25T08:31:57.434Z,0.00
2019-02-25T08:32:57.390Z,0.00
2019-02-25T08:33:57.345Z,0.00
2019-02-25T08:34:57.314Z,0.00
2019-02-25T08:35:57.237Z,0.00
2019-02-25T08:37:02.441Z,0.00
2019-02-25T08:37:57.157Z,0.00
2019-02-25T08:38:57.123Z,0.00
2019-02-25T08:39:57.091Z,0.00
2019-02-25T08:40:57.026Z,0.00
2019-02-25T08:41:56.979Z,0.00
2019-02-25T08:42:56.944Z,0.00
2019-02-25T08:43:56.898Z,0.00
2019-02-25T08:44:56.847Z,0.00
2019-02-25T08:45:56.821Z,0.00
2019-02-25T08:46:56.745Z,0.00
2019-02-25T08:47:56.699Z,4.00
2019-02-25T08:48:56.666Z,0.00
2019-02-25T08:49:56.609Z,4.00
2019-02-25T08:50:56.586Z,4.00
2019-02-25T08:51:56.552Z,4.00
2019-02-25T08:52:56.487Z,8.00
2019-02-25T08:53:56.444Z,4.00
2019-02-25T08:54:56.407Z,8.00
2019-02-25T08:55:58.302Z,8.00
2019-02-25T08:56:56.329Z,12.00
2019-02-25T08:57:56.264Z,12.00
2019-02-25T08:58:56.240Z,16.00
2019-02-25T08:59:56.196Z,16.00
2019-02-25T09:00:56.140Z,20.00
2019-02-25T09:01:56.085Z,24.00
2019-02-25T09:02:56.029Z,32.00
2019-02-25T09:03:56.006Z,40.00
2019-02-25T09:04:55.962Z,44.00
2019-02-25T09:05:55.907Z,52.00
2019-02-25T09:06:55.851Z,60.00
2019-02-25T09:07:55.810Z,68.00
2019-02-25T09:08:55.772Z,76.00
2019-02-25T09:09:55.750Z,88.00
2019-02-25T09:10:55.672Z,96.00
2019-02-25T09:11:55.659Z,108.00
2019-02-25T09:12:55.603Z,120.00
2019-02-25T09:13:55.558Z,128.00
2019-02-25T09:14:55.492Z,144.00
2019-02-25T09:15:55.449Z,164.00
2019-02-25T09:16:55.416Z,184.00
2019-02-25T09:17:55.379Z,196.00
2019-02-25T09:18:55.327Z,212.00
2019-02-25T09:19:55.293Z,228.00
2019-02-25T09:20:55.225Z,244.00
2019-02-25T09:21:55.191Z,268.00
2019-02-25T09:22:55.156Z,288.00
2019-02-25T09:23:55.112Z,312.00
2019-02-25T09:24:55.058Z,336.00
2019-02-25T09:25:55.034Z,360.00
2019-02-25T09:26:54.989Z,372.00
2019-02-25T09:27:54.933Z,384.00
2019-02-25T09:28:54.899Z,404.00
2019-02-25T09:29:54.855Z,436.00
2019-02-25T09:30:54.778Z,464.00
2019-02-25T09:31:54.769Z,480.00
2019-02-25T09:32:54.710Z,492.00
2019-02-25T09:33:54.646Z,504.00
2019-02-25T09:34:54.611Z,528.00
2019-02-25T09:35:54.587Z,584.00
2019-02-25T09:36:54.512Z,672.00
2019-02-25T09:37:54.501Z,752.00
2019-02-25T09:38:56.544Z,792.00
2019-02-25T09:39:54.409Z,832.00
2019-02-25T09:40:54.331Z,892.00
2019-02-25T09:41:54.287Z,980.00
2019-02-25T09:42:54.274Z,1060.00
2019-02-25T09:43:54.219Z,1168.00
2019-02-25T09:44:54.175Z,1276.00
2019-02-25T09:45:54.127Z,1304.00
2019-02-25T09:46:54.084Z,1272.00
2019-02-25T09:47:54.038Z,1272.00
2019-02-25T09:48:53.987Z,1344.00
2019-02-25T09:49:53.965Z,1516.00
2019-02-25T09:50:53.919Z,1744.00
2019-02-25T09:51:53.873Z,1956.00
2019-02-25T09:52:53.818Z,2084.00
2019-02-25T09:53:53.784Z,2120.00
2019-02-25T09:54:53.708Z,2088.00
2019-02-25T09:55:53.662Z,2076.00
2019-02-25T09:56:53.640Z,2136.00
2019-02-25T09:57:53.592Z,2280.00
2019-02-25T09:58:53.532Z,2460.00
2019-02-25T09:59:53.505Z,2656.00
2019-02-25T10:00:53.453Z,2936.00
2019-02-25T10:01:53.409Z,3324.00
2019-02-25T10:02:53.367Z,3720.00
2019-02-25T10:03:53.341Z,3964.00
2019-02-25T10:04:53.274Z,4268.00
2019-02-25T10:05:53.221Z,4860.00
2019-02-25T10:07:01.975Z,5632.00
2019-02-25T10:07:53.132Z,6580.00
2019-02-25T10:08:53.124Z,7976.00
2019-02-25T10:09:53.058Z,9804.00
2019-02-25T10:10:53.029Z,10864.00
2019-02-25T10:11:52.968Z,10984.00
2019-02-25T10:12:52.921Z,14384.00
2019-02-25T10:13:52.898Z,11932.00
2019-02-25T10:14:52.833Z,12612.00
2019-02-25T10:15:52.816Z,15360.00
2019-02-25T10:16:53.958Z,64736.00
2019-02-25T10:17:52.702Z,88768.00
2019-02-25T10:18:52.668Z,89760.00
2019-02-25T10:19:52.603Z,88736.00
2019-02-25T10:20:52.593Z,89056.00
2019-02-25T10:21:52.531Z,91520.00
2019-02-25T10:22:52.511Z,86592.00
2019-02-25T10:23:52.446Z,52320.00
2019-02-25T10:24:52.426Z,15512.00
2019-02-25T10:25:52.386Z,9092.00
2019-02-25T10:26:52.325Z,7168.00
2019-02-25T10:27:52.306Z,5880.00
2019-02-25T10:28:52.233Z,5200.00
2019-02-25T10:29:52.199Z,4816.00
2019-02-25T10:30:53.164Z,4536.00
2019-02-25T10:31:52.144Z,4336.00
2019-02-25T10:32:52.104Z,4148.00
2019-02-25T10:33:52.050Z,4012.00
2019-02-25T10:34:51.988Z,3936.00
2019-02-25T10:35:51.979Z,3920.00
2019-02-25T10:36:52.416Z,3936.00
2019-02-25T10:37:51.866Z,3940.00
2019-02-25T10:38:51.835Z,3976.00
2019-02-25T10:39:51.780Z,4092.00
2019-02-25T10:40:53.800Z,4324.00
2019-02-25T10:41:53.271Z,4604.00
2019-02-25T10:42:51.653Z,4772.00
2019-02-25T10:43:51.622Z,4932.00
2019-02-25T10:44:51.589Z,5032.00
2019-02-25T10:45:51.551Z,5084.00
2019-02-25T10:46:51.483Z,5104.00
2019-02-25T10:47:54.391Z,5044.00
2019-02-25T10:48:54.407Z,5040.00
2019-02-25T10:49:51.376Z,5100.00
2019-02-25T10:50:56.010Z,5308.00
2019-02-25T10:51:51.271Z,5532.00
2019-02-25T10:52:51.259Z,5732.00
2019-02-25T10:53:52.029Z,6016.00
2019-02-25T10:54:52.426Z,6344.00
2019-02-25T10:55:52.943Z,6568.00
2019-02-25T10:56:51.651Z,6672.00
2019-02-25T10:57:52.682Z,6588.00
2019-02-25T10:58:50.989Z,6536.00
2019-02-25T10:59:50.941Z,6120.00
2019-02-25T11:00:50.923Z,5692.00
2019-02-25T11:01:50.839Z,5344.00
2019-02-25T11:02:51.664Z,5076.00
2019-02-25T11:03:52.491Z,4916.00
2019-02-25T11:04:51.428Z,4868.00
2019-02-25T11:05:51.757Z,4996.00
2019-02-25T11:06:50.658Z,5176.00
2019-02-25T11:07:50.593Z,5304.00
2019-02-25T11:08:50.555Z,5412.00
2019-02-25T11:09:50.514Z,5544.00
2019-02-25T11:10:52.381Z,5692.00
2019-02-25T11:11:51.008Z,5848.00
2019-02-25T11:12:50.381Z,6048.00
2019-02-25T11:13:50.344Z,6356.00
2019-02-25T11:14:50.299Z,6708.00
2019-02-25T11:15:50.255Z,6988.00
2019-02-25T11:16:52.109Z,7280.00
2019-02-25T11:17:51.681Z,7540.00
2019-02-25T11:18:52.217Z,7728.00
2019-02-25T11:19:50.097Z,7824.00
2019-02-25T11:20:50.050Z,7916.00
2019-02-25T11:21:49.975Z,8032.00
2019-02-25T11:22:49.957Z,8344.00
2019-02-25T11:23:51.699Z,8856.00
2019-02-25T11:24:51.825Z,9148.00
2019-02-25T11:25:51.348Z,9176.00
2019-02-25T11:26:49.772Z,9004.00
2019-02-25T11:27:49.719Z,8752.00
2019-02-25T11:28:49.697Z,8640.00
2019-02-25T11:29:49.631Z,8676.00
2019-02-25T11:30:51.419Z,8792.00
2019-02-25T11:31:51.438Z,8652.00
2019-02-25T11:32:51.245Z,8840.00
2019-02-25T11:33:49.468Z,8468.00
2019-02-25T11:34:49.433Z,8652.00
2019-02-25T11:35:49.388Z,8548.00
2019-02-25T11:36:50.826Z,8504.00
2019-02-25T11:37:50.088Z,8440.00
2019-02-25T11:38:49.263Z,8368.00
2019-02-25T11:39:49.227Z,8332.00
2019-02-25T11:40:49.179Z,8212.00
2019-02-25T11:41:49.128Z,8048.00
2019-02-25T11:42:49.092Z,7880.00
2019-02-25T11:43:50.970Z,7640.00
2019-02-25T11:44:49.005Z,7400.00
2019-02-25T11:45:48.945Z,7276.00
2019-02-25T11:46:48.925Z,7368.00
2019-02-25T11:47:48.852Z,7452.00
2019-02-25T11:48:48.842Z,7492.00
2019-02-25T11:49:50.789Z,7596.00
2019-02-25T11:50:48.761Z,8052.00
2019-02-25T11:51:48.711Z,8496.00
2019-02-25T11:52:48.671Z,9080.00
2019-02-25T11:53:48.626Z,9844.00
2019-02-25T11:54:48.593Z,10644.00
2019-02-25T11:55:48.507Z,10640.00
2019-02-25T11:56:48.476Z,12008.00
2019-02-25T11:57:48.450Z,12336.00
2019-02-25T11:58:48.414Z,12232.00
2019-02-25T11:59:48.357Z,11844.00
2019-02-25T12:00:48.326Z,11920.00
2019-02-25T12:01:48.278Z,11812.00
2019-02-25T12:02:48.243Z,11372.00
2019-02-25T12:03:48.186Z,10840.00
2019-02-25T12:04:48.532Z,10904.00
2019-02-25T12:05:48.102Z,10604.00
2019-02-25T12:06:48.074Z,10020.00
2019-02-25T12:07:48.031Z,10528.00
2019-02-25T12:08:47.991Z,10012.00
2019-02-25T12:09:47.945Z,10316.00
2019-02-25T12:10:47.903Z,10372.00
2019-02-25T12:11:47.862Z,10768.00
2019-02-25T12:12:47.817Z,10616.00
2019-02-25T12:13:47.757Z,11064.00
2019-02-25T12:14:47.739Z,10884.00
2019-02-25T12:15:47.690Z,10980.00
2019-02-25T12:16:47.634Z,11216.00
2019-02-25T12:17:47.610Z,10648.00
2019-02-25T12:18:47.569Z,11420.00
2019-02-25T12:19:47.514Z,12140.00
2019-02-25T12:20:47.452Z,11328.00
2019-02-25T12:21:47.448Z,10836.00
2019-02-25T12:22:47.383Z,10452.00
2019-02-25T12:23:47.358Z,10240.00
2019-02-25T12:24:47.284Z,10112.00
2019-02-25T12:25:47.258Z,10084.00
2019-02-25T12:26:47.224Z,9908.00
2019-02-25T12:27:47.192Z,9800.00
2019-02-25T12:28:47.149Z,9736.00
2019-02-25T12:29:47.085Z,9424.00
2019-02-25T12:30:47.051Z,10008.00
2019-02-25T12:31:47.020Z,10364.00
2019-02-25T12:32:46.972Z,10216.00
2019-02-25T12:33:46.931Z,9716.00
2019-02-25T12:34:46.903Z,10248.00
2019-02-25T12:35:46.839Z,9796.00
2019-02-25T12:36:46.811Z,9836.00
2019-02-25T12:37:46.777Z,9328.00
2019-02-25T12:38:46.731Z,9304.00
2019-02-25T12:39:46.699Z,9196.00
2019-02-25T12:40:46.676Z,9276.00
2019-02-25T12:41:46.606Z,9076.00
2019-02-25T12:42:46.585Z,9160.00
2019-02-25T12:43:46.501Z,9576.00
2019-02-25T12:44:46.472Z,9820.00
2019-02-25T12:45:46.450Z,9640.00
2019-02-25T12:46:46.389Z,8712.00
2019-02-25T12:47:46.356Z,8364.00
2019-02-25T12:48:46.314Z,9068.00
2019-02-25T12:49:46.255Z,9204.00
2019-02-25T12:50:46.233Z,9292.00
2019-02-25T12:51:46.196Z,9100.00
2019-02-25T12:52:46.149Z,9108.00
2019-02-25T12:53:46.113Z,8928.00